Time;durP1;ratioP1;P1;durP2;ratioP2;P2;SDS_P1;SDS_P2;PMS_P1;PMS_P2;Temp;Humidity;BMP_temperature;BMP_pressure;BME280_temperature;BME280_humidity;BME280_pressure;Samples;Min_cycle;Max_cycle;Signal;HPM_P1;HPM_P2
2021/11/01 00:01:55;;;;;;;9.07;1.52;;;;;;;9.82;87.57;99742.66;4995860;28;20048;-76
2021/11/01 00:04:20;;;;;;;14.65;1.65;;;;;;;9.93;87.50;99737.03;4988734;28;20034;-75
2021/11/01 00:06:46;;;;;;;16.50;3.25;;;;;;;9.81;87.52;99735.06;4986028;28;20109;-76
2021/11/01 00:09:11;;;;;;;8.48;2.08;;;;;;;9.93;86.94;99728.47;4984759;28;20382;-76
2021/11/01 00:11:37;;;;;;;11.82;2.15;;;;;;;9.85;87.06;99729.38;4982852;28;20022;-75
2021/11/01 00:14:02;;;;;;;20.85;2.83;;;;;;;9.78;87.50;99735.44;4985828;28;20549;-77
2021/11/01 00:16:29;;;;;;;11.02;1.63;;;;;;;9.74;87.46;99729.81;4988044;28;20099;-75
2021/11/01 00:18:55;;;;;;;16.40;3.95;;;;;;;9.74;87.55;99730.59;4985304;28;20859;-76
2021/11/01 00:21:21;;;;;;;15.73;2.30;;;;;;;9.80;86.58;99729.09;4981223;28;20052;-75
2021/11/01 00:23:47;;;;;;;11.80;1.35;;;;;;;9.77;87.02;99733.81;4982086;28;20033;-76
2021/11/01 00:26:13;;;;;;;14.07;2.30;;;;;;;9.74;87.20;99725.41;4975360;28;20121;-76
2021/11/01 00:28:39;;;;;;;20.02;1.88;;;;;;;9.59;87.85;99728.94;4977324;28;20026;-77
2021/11/01 00:31:05;;;;;;;11.25;1.77;;;;;;;9.61;87.63;99734.78;5008915;28;20143;-76
2021/11/01 00:33:30;;;;;;;17.60;2.13;;;;;;;9.70;87.68;99725.94;4979462;28;20486;-75
2021/11/01 00:35:56;;;;;;;10.95;1.73;;;;;;;9.56;87.87;99727.53;4975857;28;20034;-76
2021/11/01 00:38:22;;;;;;;14.23;2.08;;;;;;;9.49;88.11;99724.84;4971231;28;20510;-76
2021/11/01 00:40:49;;;;;;;16.60;2.70;;;;;;;9.46;88.31;99735.53;4978795;28;20030;-75
2021/11/01 00:43:15;;;;;;;13.43;1.60;;;;;;;9.52;87.88;99727.06;4975049;28;20030;-75
2021/11/01 00:45:40;;;;;;;15.57;2.25;;;;;;;9.53;87.69;99725.28;4989614;28;20034;-75
2021/11/01 00:48:06;;;;;;;17.33;2.55;;;;;;;9.44;88.18;99724.56;4976150;28;20035;-76
2021/11/01 00:50:32;;;;;;;13.75;2.15;;;;;;;9.43;88.46;99719.53;4968764;28;20027;-75
2021/11/01 00:52:58;;;;;;;9.65;1.70;;;;;;;9.47;88.18;99710.44;4978741;28;20066;-75
2021/11/01 00:55:33;;;;;;;9.00;1.60;;;;;;;9.47;87.61;99711.25;4990564;28;20042;-75
2021/11/01 00:57:59;;;;;;;12.55;1.73;;;;;;;9.44;88.15;99706.44;4983714;28;20039;-75
2021/11/01 01:00:26;;;;;;;12.20;1.88;;;;;;;9.43;87.37;99710.00;4976645;28;20034;-75
2021/11/01 01:02:53;;;;;;;16.48;2.08;;;;;;;9.45;87.33;99712.41;4977824;28;20134;-75
2021/11/01 01:05:19;;;;;;;9.82;1.70;;;;;;;9.43;87.55;99707.41;4981606;28;20034;-75
2021/11/01 01:07:44;;;;;;;8.00;1.30;;;;;;;9.35;87.73;99704.91;4985247;28;20031;-76
2021/11/01 01:10:10;;;;;;;9.57;1.65;;;;;;;9.30;88.23;99708.00;4976703;28;20061;-75
2021/11/01 01:12:41;;;;;;;11.45;1.50;;;;;;;9.45;87.19;99715.00;4994348;28;20034;-75
2021/11/01 01:15:13;;;;;;;13.52;1.52;;;;;;;9.30;87.70;99708.00;4987829;28;20042;-75
2021/11/01 01:17:42;;;;;;;13.93;1.77;;;;;;;9.21;88.26;99701.31;4984216;28;20063;-75
2021/11/01 01:20:09;;;;;;;16.10;2.13;;;;;;;9.22;87.82;99712.44;4992000;28;20118;-75
2021/11/01 01:22:36;;;;;;;15.80;1.95;;;;;;;9.27;88.09;99710.16;4995373;28;20030;-75
2021/11/01 01:27:48;;;;;;;8.95;1.77;;;;;;;9.21;87.14;99705.66;4978086;28;20116;-76
2021/11/01 01:30:14;;;;;;;13.18;2.67;;;;;;;9.25;87.33;99701.72;4982136;28;20314;-75
2021/11/01 01:32:42;;;;;;;7.65;1.70;;;;;;;9.26;86.96;99693.00;4978544;28;20023;-75
2021/11/01 01:35:09;;;;;;;8.98;1.23;;;;;;;9.28;86.92;99696.22;4980106;28;20034;-75
2021/11/01 01:37:35;;;;;;;11.45;1.83;;;;;;;9.14;87.04;99690.84;4979178;28;20502;-75
2021/11/01 01:40:00;;;;;;;10.40;1.80;;;;;;;9.07;87.97;99692.50;4976659;28;20056;-75
2021/11/01 01:42:26;;;;;;;8.60;1.27;;;;;;;9.10;87.23;99696.53;4974314;28;20242;-75
2021/11/01 01:44:51;;;;;;;9.82;1.52;;;;;;;9.07;87.35;99699.44;4958592;28;20072;-75
2021/11/01 01:47:17;;;;;;;14.45;1.52;;;;;;;9.09;86.73;99695.72;4974947;28;20027;-75
2021/11/01 01:49:43;;;;;;;17.20;1.75;;;;;;;9.11;86.70;99692.97;4977284;28;20487;-75
2021/11/01 01:52:10;;;;;;;9.07;1.83;;;;;;;9.05;86.77;99688.47;4981210;28;20160;-75
2021/11/01 01:54:36;;;;;;;11.68;1.65;;;;;;;9.09;86.92;99694.91;4976023;28;20150;-75
2021/11/01 01:57:02;;;;;;;12.02;1.92;;;;;;;9.08;86.61;99704.47;4997044;28;20102;-74
2021/11/01 01:59:28;;;;;;;10.02;2.33;;;;;;;8.93;87.32;99704.41;4971154;28;20026;-75
2021/11/01 02:01:54;;;;;;;7.80;1.55;;;;;;;8.87;87.93;99699.09;4979087;28;20026;-75
2021/11/01 02:04:24;;;;;;;7.72;1.40;;;;;;;8.85;87.91;99701.03;4981739;28;20022;-76
2021/11/01 02:07:08;;;;;;;7.70;1.15;;;;;;;8.79;87.96;99699.16;4982537;28;20478;-76
2021/11/01 02:09:46;;;;;;;12.82;2.67;;;;;;;8.82;87.70;99683.31;4976233;28;20031;-76
2021/11/01 02:12:19;;;;;;;8.50;1.58;;;;;;;8.83;87.79;99692.66;4979717;28;20033;-75
2021/11/01 02:14:53;;;;;;;9.45;2.05;;;;;;;8.76;88.15;99685.59;4982488;28;20355;-75
2021/11/01 02:17:22;;;;;;;8.65;2.08;;;;;;;8.76;87.67;99685.59;4982220;28;20030;-75
2021/11/01 02:19:51;;;;;;;17.00;1.50;;;;;;;8.79;88.06;99686.22;4972895;28;20486;-75
2021/11/01 02:22:34;;;;;;;10.27;2.10;;;;;;;8.81;88.53;99684.28;4980617;28;20038;-76
2021/11/01 02:25:07;;;;;;;13.48;1.75;;;;;;;8.85;87.58;99676.00;4976513;28;20049;-75
2021/11/01 02:27:36;;;;;;;10.80;1.63;;;;;;;8.85;87.80;99682.94;4983681;28;20197;-76
2021/11/01 02:30:03;;;;;;;12.82;1.40;;;;;;;8.90;87.75;99676.28;4969843;28;20050;-75
2021/11/01 02:32:30;;;;;;;9.15;1.30;;;;;;;8.85;87.58;99675.19;4973167;28;20030;-75
2021/11/01 02:34:56;;;;;;;12.77;1.20;;;;;;;8.82;88.01;99685.91;4958337;28;20041;-75
2021/11/01 02:37:22;;;;;;;9.18;1.48;;;;;;;8.79;88.13;99681.06;4991443;28;20042;-75
2021/11/01 02:39:53;;;;;;;9.45;1.38;;;;;;;8.93;87.80;99681.13;4974470;28;20030;-76
2021/11/01 02:42:21;;;;;;;8.07;1.52;;;;;;;8.98;87.04;99678.00;4974699;28;20035;-75
2021/11/01 02:44:55;;;;;;;10.18;1.17;;;;;;;8.98;87.32;99670.25;4978891;28;20165;-76
2021/11/01 02:47:22;;;;;;;12.25;1.25;;;;;;;8.99;86.93;99671.88;4979676;28;20042;-75
2021/11/01 02:49:47;;;;;;;13.43;1.50;;;;;;;8.90;87.69;99665.94;4987224;28;20045;-74
2021/11/01 02:52:13;;;;;;;11.57;1.33;;;;;;;8.85;87.53;99665.66;5012989;28;20031;-74
2021/11/01 02:54:38;;;;;;;16.70;1.23;;;;;;;8.86;87.67;99669.84;4993750;28;20440;-76
2021/11/01 02:57:04;;;;;;;7.70;1.13;;;;;;;8.87;86.93;99661.16;4981472;28;20544;-75
2021/11/01 02:59:29;;;;;;;12.65;1.42;;;;;;;8.84;87.36;99661.47;4985175;28;20037;-75
2021/11/01 03:01:58;;;;;;;13.13;2.42;;;;;;;8.90;87.01;99665.16;5011721;28;20066;-78
2021/11/01 03:04:24;;;;;;;8.25;1.52;;;;;;;8.87;87.11;99670.66;4979978;28;20067;-76
2021/11/01 03:06:50;;;;;;;11.38;1.33;;;;;;;8.88;86.78;99660.16;4984441;28;20042;-75
2021/11/01 03:09:16;;;;;;;9.30;2.63;;;;;;;8.79;87.28;99663.75;4972619;28;20095;-76
2021/11/01 03:11:42;;;;;;;8.35;1.63;;;;;;;8.87;86.56;99663.72;4980412;28;20411;-75
2021/11/01 03:14:08;;;;;;;12.45;2.67;;;;;;;8.92;86.25;99655.44;4981963;28;20076;-76
2021/11/01 03:16:33;;;;;;;13.43;1.90;;;;;;;8.86;86.31;99654.34;4988350;28;20030;-76
2021/11/01 03:19:19;;;;;;;7.90;1.70;;;;;;;8.81;86.64;99656.63;4988608;28;20450;-76
2021/11/01 03:21:46;;;;;;;8.98;1.42;;;;;;;8.75;86.96;99650.38;4988487;28;20033;-76
2021/11/01 03:24:15;;;;;;;15.88;1.85;;;;;;;8.80;86.71;99654.22;4983443;28;20042;-76
2021/11/01 03:26:43;;;;;;;8.63;1.92;;;;;;;8.76;86.89;99656.38;5004676;28;20045;-75
2021/11/01 03:29:10;;;;;;;10.07;1.40;;;;;;;8.68;87.41;99659.81;4988470;28;20034;-76
2021/11/01 03:31:39;;;;;;;11.48;1.58;;;;;;;8.75;87.04;99663.31;5003420;28;20436;-75
2021/11/01 03:34:08;;;;;;;11.02;1.30;;;;;;;8.75;86.87;99657.34;4985557;28;20038;-75
2021/11/01 03:36:36;;;;;;;12.88;2.35;;;;;;;8.76;86.59;99667.50;4977698;28;20099;-75
2021/11/01 03:39:03;;;;;;;8.23;1.83;;;;;;;8.73;87.18;99660.09;4981623;28;20771;-75
2021/11/01 03:41:30;;;;;;;5.70;1.23;;;;;;;8.72;86.95;99671.41;4985723;28;20442;-75
2021/11/01 03:44:08;;;;;;;12.90;2.10;;;;;;;8.66;87.43;99672.06;4981091;28;20042;-75
2021/11/01 03:46:56;;;;;;;13.63;1.92;;;;;;;8.69;87.38;99676.13;4979901;28;20582;-75
2021/11/01 03:49:24;;;;;;;8.13;1.67;;;;;;;8.76;87.01;99680.44;4989351;28;20565;-75
2021/11/01 03:52:07;;;;;;;10.63;1.20;;;;;;;8.77;87.09;99678.63;4986112;28;20034;-74
2021/11/01 03:54:33;;;;;;;9.35;1.38;;;;;;;8.75;87.11;99681.41;5005770;28;20035;-75
2021/11/01 03:56:58;;;;;;;5.65;1.42;;;;;;;8.79;87.14;99676.69;4983312;28;20045;-75
2021/11/01 03:59:26;;;;;;;17.80;2.22;;;;;;;8.80;86.68;99682.66;4979277;28;20022;-75
2021/11/01 04:01:52;;;;;;;12.27;1.90;;;;;;;8.72;87.04;99686.09;4990515;28;20380;-75
2021/11/01 04:04:18;;;;;;;10.57;1.35;;;;;;;8.73;86.83;99683.34;4982857;28;20039;-74
2021/11/01 04:06:45;;;;;;;9.75;1.23;;;;;;;8.68;87.17;99687.41;5076223;28;20038;-74
2021/11/01 04:09:13;;;;;;;7.05;1.40;;;;;;;8.72;87.49;99679.16;4989200;28;20030;-77
2021/11/01 04:11:43;;;;;;;10.40;1.75;;;;;;;8.66;87.28;99692.75;4981280;28;20094;-74
2021/11/01 04:14:15;;;;;;;10.68;1.48;;;;;;;8.61;87.34;99687.31;4988162;28;20042;-74
2021/11/01 04:16:43;;;;;;;7.18;1.55;;;;;;;8.80;86.43;99680.06;4983412;28;20356;-74
2021/11/01 04:21:43;;;;;;;8.18;1.75;;;;;;;8.69;86.66;99684.66;4992582;28;20034;-75
2021/11/01 04:24:10;;;;;;;10.82;1.60;;;;;;;8.69;86.92;99691.63;5026684;28;20499;-75
2021/11/01 04:26:36;;;;;;;14.95;1.75;;;;;;;8.65;87.00;99690.34;4984503;28;20386;-75
2021/11/01 04:29:05;;;;;;;9.98;1.55;;;;;;;8.60;86.94;99693.44;4991642;28;20082;-74
2021/11/01 04:31:34;;;;;;;10.50;1.73;;;;;;;8.60;87.22;99700.41;4986946;28;20390;-74
2021/11/01 04:34:07;;;;;;;9.77;1.80;;;;;;;8.56;87.24;99698.13;4987332;28;20087;-75
2021/11/01 04:36:33;;;;;;;8.77;1.42;;;;;;;8.48;87.89;99698.19;4982284;28;20041;-74
2021/11/01 04:42:20;;;;;;;15.30;2.30;;;;;;;8.51;87.61;99692.69;4957876;28;20051;-75
2021/11/01 04:55:08;;;;;;;19.95;3.28;;;;;;;8.39;87.25;99689.63;4982317;28;20049;-74
2021/11/01 04:57:34;;;;;;;12.52;1.75;;;;;;;8.36;87.20;99684.81;4981757;28;20033;-75
2021/11/01 04:59:59;;;;;;;10.98;2.38;;;;;;;8.34;87.59;99686.78;5000806;28;20029;-75
2021/11/01 05:02:26;;;;;;;9.93;2.10;;;;;;;8.29;87.42;99686.47;4977320;28;20081;-75
2021/11/01 05:04:52;;;;;;;14.50;1.80;;;;;;;8.23;87.75;99681.97;4981838;28;20086;-75
2021/11/01 05:07:18;;;;;;;12.68;1.92;;;;;;;8.21;87.86;99690.84;4987559;28;20168;-75
2021/11/01 05:12:31;;;;;;;13.98;1.65;;;;;;;8.22;87.69;99695.03;4989494;28;20126;-74
2021/11/01 05:17:53;;;;;;;12.93;2.08;;;;;;;8.23;87.21;99686.31;5030763;28;20545;-74
2021/11/01 05:25:20;;;;;;;15.73;2.22;;;;;;;8.22;87.03;99690.69;4984346;28;20045;-75
2021/11/01 05:27:53;;;;;;;15.57;1.88;;;;;;;8.23;86.89;99688.88;5027644;28;20055;-75
2021/11/01 05:31:08;;;;;;;17.85;2.00;;;;;;;8.21;86.72;99677.94;4967623;28;20058;-74
2021/11/01 05:35:36;;;;;;;8.57;1.92;;;;;;;8.28;85.68;99671.13;4986099;28;20075;-75
2021/11/01 05:38:02;;;;;;;15.63;3.35;;;;;;;8.16;86.54;99674.06;4983751;28;20440;-77
2021/11/01 05:40:28;;;;;;;10.23;1.48;;;;;;;8.19;86.77;99678.91;4982144;28;20034;-75
2021/11/01 05:42:53;;;;;;;15.60;2.17;;;;;;;8.15;86.62;99684.56;4988412;28;20394;-75
2021/11/01 05:45:19;;;;;;;14.43;2.38;;;;;;;8.24;86.02;99685.34;4976157;28;20038;-76
2021/11/01 05:47:48;;;;;;;6.47;1.40;;;;;;;8.30;85.48;99679.50;4983480;28;20052;-75
2021/11/01 05:50:14;;;;;;;22.25;2.08;;;;;;;8.37;84.65;99696.75;4983046;28;20083;-76
2021/11/01 05:52:42;;;;;;;8.75;1.73;;;;;;;8.35;84.65;99692.72;4983969;28;20034;-75
2021/11/01 05:55:20;;;;;;;15.57;2.05;;;;;;;8.27;84.98;99693.56;4981638;28;20478;-76
2021/11/01 06:03:06;;;;;;;8.38;1.60;;;;;;;8.33;84.20;99689.50;4984795;28;20038;-75
2021/11/01 06:13:28;;;;;;;18.15;2.50;;;;;;;8.29;84.16;99693.41;4974592;28;20035;-75
2021/11/01 06:15:56;;;;;;;8.70;1.50;;;;;;;8.21;84.61;99696.00;4971563;28;20042;-76
2021/11/01 06:18:26;;;;;;;12.60;1.50;;;;;;;8.28;84.38;99691.78;4974132;28;20042;-75
2021/11/01 06:20:52;;;;;;;14.40;2.17;;;;;;;8.28;84.24;99684.03;4978083;28;20486;-74
2021/11/01 06:23:18;;;;;;;16.55;1.40;;;;;;;8.23;84.53;99691.47;4982427;28;20039;-76
2021/11/01 06:25:45;;;;;;;12.90;1.98;;;;;;;8.26;84.16;99683.41;4989098;28;20041;-75
2021/11/01 06:28:13;;;;;;;10.73;1.50;;;;;;;8.23;84.01;99686.31;4986266;28;20383;-76
2021/11/01 06:30:45;;;;;;;7.53;1.83;;;;;;;8.40;82.62;99687.88;4976869;28;20350;-75
2021/11/01 07:15:45;;;;;;;8.63;1.77;;;;;;;8.25;83.51;99756.69;4976969;28;20030;-77
2021/11/01 07:18:17;;;;;;;;;;;;;;;8.31;83.68;99762.00;4991228;28;20503;-76
2021/11/01 08:20:43;;;;;;;15.48;2.30;;;;;;;11.41;72.46;99802.63;4994229;28;20042;-75
2021/11/01 08:28:41;;;;;;;13.80;2.70;;;;;;;12.45;69.22;99806.41;4981434;28;20053;-77
2021/11/01 08:42:37;;;;;;;8.40;1.30;;;;;;;12.01;70.29;99804.94;5001825;28;20205;-75
2021/11/01 08:45:17;;;;;;;9.13;1.52;;;;;;;12.12;69.68;99801.03;4984218;28;20038;-75
2021/11/01 09:02:36;;;;;;;10.02;1.70;;;;;;;11.49;71.91;99799.13;4983951;28;20518;-78
2021/11/01 09:20:15;;;;;;;10.43;1.25;;;;;;;11.08;73.35;99800.50;4998612;28;20033;-76
2021/11/01 09:25:40;;;;;;;18.45;2.33;;;;;;;11.21;73.05;99786.09;4971053;28;20475;-76
2021/11/01 09:28:34;;;;;;;10.38;2.45;;;;;;;11.12;72.82;99777.59;4997524;28;20031;-76
2021/11/01 09:39:00;;;;;;;10.18;1.40;;;;;;;11.16;71.87;99780.63;4984506;28;20460;-77
2021/11/01 09:41:27;;;;;;;6.22;1.10;;;;;;;11.14;70.96;99803.38;4985887;28;20060;-78
2021/11/01 09:43:56;;;;;;;7.00;1.23;;;;;;;11.21;71.97;99797.25;4997891;28;20512;-77
2021/11/01 09:46:24;;;;;;;10.57;1.38;;;;;;;11.23;70.88;99799.66;4984294;28;20427;-76
2021/11/01 09:49:13;;;;;;;12.70;2.35;;;;;;;11.18;71.82;99797.63;4976699;28;20046;-76
2021/11/01 09:51:39;;;;;;;10.45;1.30;;;;;;;11.24;72.19;99798.66;4991213;28;20104;-77
2021/11/01 09:54:07;;;;;;;5.68;1.35;;;;;;;11.32;72.00;99789.97;4982371;28;20046;-76
2021/11/01 09:59:18;;;;;;;11.07;1.50;;;;;;;11.38;70.03;99776.25;4997301;28;20058;-77
2021/11/01 10:01:46;;;;;;;6.50;1.60;;;;;;;11.33;72.01;99774.22;4995801;28;20030;-78
2021/11/01 10:04:25;;;;;;;10.50;1.27;;;;;;;11.27;71.97;99780.16;4973367;28;20061;-78
2021/11/01 10:07:30;;;;;;;11.52;1.20;;;;;;;11.33;71.96;99773.41;4983765;28;20045;-76
2021/11/01 10:10:08;;;;;;;11.77;1.42;;;;;;;11.45;70.03;99783.13;4981659;28;20087;-77
2021/11/01 10:12:35;;;;;;;11.15;1.67;;;;;;;11.45;70.88;99780.53;5003167;28;20113;-75
2021/11/01 10:18:02;;;;;;;8.52;1.48;;;;;;;11.44;69.57;99784.09;5005173;28;20087;-76
2021/11/01 10:20:30;;;;;;;11.63;1.15;;;;;;;11.48;69.58;99776.75;4982767;28;20114;-76
2021/11/01 10:22:56;;;;;;;8.75;1.30;;;;;;;11.41;69.24;99784.44;4986543;28;20334;-76
2021/11/01 10:25:22;;;;;;;10.15;1.27;;;;;;;11.38;69.44;99787.44;4985909;28;20030;-78
2021/11/01 10:27:59;;;;;;;10.13;1.10;;;;;;;11.23;70.45;99784.91;4985353;28;20037;-76
2021/11/01 10:30:29;;;;;;;3.50;0.90;;;;;;;11.38;69.13;99782.25;4986623;28;20069;-77
2021/11/01 10:32:58;;;;;;;7.28;0.85;;;;;;;11.33;68.93;99782.00;4989863;28;20425;-76
2021/11/01 10:35:33;;;;;;;9.00;1.10;;;;;;;11.36;69.52;99791.19;4988877;28;20030;-76
2021/11/01 10:41:15;;;;;;;7.65;1.08;;;;;;;11.40;70.18;99784.66;4982078;28;20035;-77
2021/11/01 11:11:33;;;;;;;7.75;0.90;;;;;;;11.65;65.04;99774.69;4979476;28;20475;-75
2021/11/01 11:14:20;;;;;;;4.82;0.90;;;;;;;11.73;66.13;99763.34;4987851;28;20076;-76
2021/11/01 11:47:42;;;;;;;6.22;1.02;;;;;;;12.18;65.50;99766.47;4995537;28;20461;-78
2021/11/01 11:50:18;;;;;;;5.32;1.20;;;;;;;12.20;64.52;99764.50;4992854;28;20073;-76
2021/11/01 11:52:45;;;;;;;6.22;1.50;;;;;;;12.10;64.05;99775.22;4985087;28;20034;-77
2021/11/01 11:55:37;;;;;;;9.15;1.08;;;;;;;11.91;63.20;99760.31;4976255;28;20038;-78
2021/11/01 11:58:04;;;;;;;2.90;0.60;;;;;;;11.95;63.85;99757.16;4983094;28;20482;-75
2021/11/01 12:00:34;;;;;;;5.32;1.33;;;;;;;11.91;63.97;99763.72;4977147;28;20030;-75
2021/11/01 12:03:17;;;;;;;9.75;1.02;;;;;;;11.92;63.89;99747.13;4980945;28;20042;-76
2021/11/01 12:05:52;;;;;;;;;;;;;;;11.91;63.84;99742.16;4976663;28;20041;-76
2021/11/01 12:08:39;;;;;;;3.60;0.82;;;;;;;11.98;64.42;99751.59;4984282;28;19939;-77
2021/11/01 12:19:06;;;;;;;6.22;1.10;;;;;;;12.17;65.19;99746.69;4990190;28;20420;-77
2021/11/01 12:21:35;;;;;;;7.00;1.27;;;;;;;12.12;64.82;99746.47;5000172;28;20030;-76
2021/11/01 12:24:01;;;;;;;6.30;0.88;;;;;;;12.14;62.85;99739.28;4993422;28;20072;-77
2021/11/01 12:26:26;;;;;;;7.93;1.20;;;;;;;12.13;63.52;99733.28;4986713;28;20452;-76
2021/11/01 12:28:58;;;;;;;7.25;1.00;;;;;;;12.26;63.17;99728.16;4994855;28;20435;-77
2021/11/01 12:31:24;;;;;;;11.70;1.08;;;;;;;12.30;61.86;99732.94;4996794;28;20034;-77
2021/11/01 12:34:35;;;;;;;7.07;1.02;;;;;;;12.42;61.12;99734.81;4976077;28;20512;-77
2021/11/01 12:39:25;;;;;;;4.13;0.70;;;;;;;12.38;61.99;99732.81;4983803;28;20129;-76
2021/11/01 12:47:41;;;;;;;8.18;1.15;;;;;;;12.41;61.12;99729.78;4985650;28;20034;-77
2021/11/01 12:58:30;;;;;;;7.85;1.00;;;;;;;12.48;62.16;99722.03;4977088;28;20038;-77
2021/11/01 13:01:08;;;;;;;6.60;1.00;;;;;;;12.38;61.07;99709.41;4978651;28;20110;-75
2021/11/01 13:03:34;;;;;;;8.50;1.00;;;;;;;12.41;60.89;99722.81;4981082;28;20053;-76
2021/11/01 13:06:04;;;;;;;4.72;1.38;;;;;;;12.39;61.25;99721.38;4976616;28;20051;-76
2021/11/01 13:08:36;;;;;;;3.58;0.73;;;;;;;12.59;60.74;99719.66;4974444;28;20031;-75
2021/11/01 13:11:19;;;;;;;5.68;1.95;;;;;;;12.46;61.39;99719.63;4987531;28;20030;-76
2021/11/01 13:14:12;;;;;;;5.22;0.88;;;;;;;12.60;60.76;99710.88;4985764;28;20395;-76
2021/11/01 13:19:20;;;;;;;5.22;0.93;;;;;;;12.60;60.55;99716.09;4989847;28;20041;-76
2021/11/01 13:22:14;;;;;;;7.75;1.10;;;;;;;12.65;59.76;99718.88;4975562;28;20088;-76
2021/11/01 13:24:57;;;;;;;6.35;0.90;;;;;;;12.62;60.34;99719.28;4988015;28;20164;-76
2021/11/01 13:35:42;;;;;;;4.28;0.80;;;;;;;12.53;60.64;99715.25;4974509;28;20038;-76
2021/11/01 13:38:09;;;;;;;5.47;0.98;;;;;;;12.57;61.31;99719.06;4979826;28;20035;-79
2021/11/01 13:40:45;;;;;;;7.22;0.98;;;;;;;12.61;60.81;99719.47;4984137;28;20461;-75
2021/11/01 13:43:10;;;;;;;8.65;1.95;;;;;;;12.55;59.93;99720.28;4976362;28;20044;-76
2021/11/01 13:45:36;;;;;;;7.55;1.05;;;;;;;12.52;59.96;99716.25;4993643;28;20030;-76
2021/11/01 13:48:03;;;;;;;5.05;1.05;;;;;;;12.56;60.37;99720.03;5011356;28;20057;-76
2021/11/01 13:50:38;;;;;;;7.25;0.60;;;;;;;12.52;61.13;99718.03;4992586;28;20058;-75
2021/11/01 13:53:15;;;;;;;5.93;0.95;;;;;;;12.48;61.87;99717.63;5000032;28;20050;-76
2021/11/01 13:55:50;;;;;;;6.13;0.80;;;;;;;12.60;61.94;99715.25;4981206;28;20041;-76
2021/11/01 14:03:40;;;;;;;3.20;0.80;;;;;;;12.48;61.77;99709.81;4989403;28;20022;-76
2021/11/01 14:12:12;;;;;;;5.07;0.80;;;;;;;12.42;62.80;99719.22;4989268;28;20030;-75
2021/11/01 14:14:48;;;;;;;7.57;1.15;;;;;;;12.53;61.35;99725.66;4973296;28;20034;-76
2021/11/01 14:33:46;;;;;;;3.35;1.00;;;;;;;12.39;61.11;99731.78;5000516;28;20034;-75
2021/11/01 15:08:29;;;;;;;6.28;0.90;;;;;;;12.28;62.98;99720.13;4952177;28;20259;-76
2021/11/01 15:16:22;;;;;;;6.38;0.80;;;;;;;12.27;60.94;99715.94;4977408;28;20413;-75
2021/11/01 15:19:01;;;;;;;5.13;0.60;;;;;;;12.15;61.83;99720.06;4962566;28;20128;-75
2021/11/01 15:21:33;;;;;;;3.60;1.00;;;;;;;12.06;62.65;99716.84;4966264;28;20046;-75
2021/11/01 15:37:24;;;;;;;6.63;1.27;;;;;;;12.09;61.42;99732.03;4955920;28;20065;-76
2021/11/01 16:20:22;;;;;;;6.60;1.40;;;;;;;11.34;64.95;99751.66;4963163;28;20111;-75
2021/11/01 16:22:54;;;;;;;10.70;2.13;;;;;;;11.40;65.79;99756.91;4947972;28;20153;-75
2021/11/01 16:25:20;;;;;;;6.85;1.92;;;;;;;11.34;65.01;99747.28;4972944;28;20069;-77
2021/11/01 16:27:48;;;;;;;6.70;1.67;;;;;;;11.26;65.60;99753.41;4953074;28;20070;-75
2021/11/01 16:30:21;;;;;;;6.03;1.42;;;;;;;11.25;65.45;99745.78;4961519;28;20030;-75
2021/11/01 16:32:53;;;;;;;4.35;1.15;;;;;;;11.24;65.41;99741.59;4951101;28;20041;-75
2021/11/01 16:35:23;;;;;;;5.90;1.30;;;;;;;11.14;65.86;99746.28;4968268;28;20126;-76
2021/11/01 16:38:18;;;;;;;5.82;1.85;;;;;;;11.08;66.97;99740.84;4956524;28;20122;-75
2021/11/01 16:40:40;;;;;;;9.00;2.13;;;;;;;11.00;66.64;99743.56;4963611;28;20046;-75
2021/11/01 16:43:14;;;;;;;7.47;2.22;;;;;;;10.94;66.77;99744.28;4962785;28;20063;-75
2021/11/01 16:45:40;;;;;;;5.70;1.70;;;;;;;10.88;66.98;99745.81;4943785;28;20035;-76
2021/11/01 16:48:07;;;;;;;4.10;1.65;;;;;;;10.90;66.31;99743.84;4958885;28;20214;-75
2021/11/01 16:50:33;;;;;;;8.85;2.00;;;;;;;11.00;65.46;99748.75;4948866;28;20039;-75
2021/11/01 16:52:59;;;;;;;8.30;2.03;;;;;;;10.83;66.87;99744.75;4984698;28;20073;-75
2021/11/01 16:55:30;;;;;;;9.60;1.95;;;;;;;10.77;66.81;99748.09;4953546;28;20035;-74
2021/11/01 16:57:58;;;;;;;10.23;1.63;;;;;;;10.80;66.86;99747.75;4976987;28;20046;-75
2021/11/01 17:00:37;;;;;;;8.15;2.15;;;;;;;10.68;67.67;99747.38;5014648;28;20038;-75
2021/11/01 17:22:29;;;;;;;17.48;4.00;;;;;;;10.25;69.24;99745.44;4985795;28;20023;-75
2021/11/01 17:25:09;;;;;;;8.38;2.35;;;;;;;10.20;69.43;99758.13;4963304;28;20042;-75
2021/11/01 17:30:51;;;;;;;8.43;2.63;;;;;;;10.24;68.71;99759.38;4973127;28;20400;-75
2021/11/01 18:40:05;;;;;;;7.68;2.42;;;;;;;9.20;73.79;99794.59;4953727;28;20039;-75
2021/11/01 18:50:53;;;;;;;9.35;2.22;;;;;;;9.00;75.32;99802.75;4960782;28;20424;-75
2021/11/01 18:53:35;;;;;;;13.65;2.97;;;;;;;8.95;75.38;99803.28;4957330;28;20471;-75
2021/11/01 18:56:04;;;;;;;15.85;2.88;;;;;;;9.00;74.68;99814.88;4975017;28;20042;-74
2021/11/01 18:58:34;;;;;;;12.73;2.65;;;;;;;9.07;73.98;99798.53;4964837;28;20019;-74
2021/11/01 19:01:01;;;;;;;7.25;2.17;;;;;;;9.05;74.13;99812.59;4967144;28;20494;-76
2021/11/01 19:03:30;;;;;;;9.13;1.90;;;;;;;9.06;74.37;99812.44;4961633;28;20031;-75
2021/11/01 19:09:06;;;;;;;5.95;1.90;;;;;;;9.01;74.61;99812.13;4983325;28;20038;-75
2021/11/01 19:14:34;;;;;;;15.15;3.63;;;;;;;8.98;74.58;99816.84;4988967;28;20042;-75
2021/11/01 20:04:20;;;;;;;14.02;3.25;;;;;;;8.38;78.51;99803.44;4984749;28;20054;-75
2021/11/01 20:12:08;;;;;;;14.50;3.20;;;;;;;8.38;77.71;99799.13;4964855;28;20484;-75
2021/11/01 21:26:59;;;;;;;20.48;3.58;;;;;;;7.84;82.04;99777.44;4964228;28;20396;-75
2021/11/01 21:29:29;;;;;;;7.65;2.67;;;;;;;7.81;82.43;99778.53;5016053;28;20447;-75
2021/11/01 21:31:55;;;;;;;9.48;3.92;;;;;;;7.77;82.83;99778.06;4974841;28;20071;-74
2021/11/01 21:34:35;;;;;;;10.45;3.35;;;;;;;7.75;82.94;99772.25;4967766;28;20380;-75
2021/11/01 21:37:02;;;;;;;8.90;2.67;;;;;;;7.85;83.21;99773.88;4954987;28;20519;-75
2021/11/01 21:39:28;;;;;;;15.52;3.53;;;;;;;7.96;83.41;99773.53;4973685;28;20046;-75
2021/11/01 21:41:54;;;;;;;9.43;2.10;;;;;;;7.93;84.01;99773.84;4967559;28;20026;-75
2021/11/01 21:44:21;;;;;;;8.60;2.03;;;;;;;7.92;84.14;99772.25;4988735;28;20104;-76
2021/11/01 21:46:46;;;;;;;9.80;2.55;;;;;;;7.91;84.63;99771.44;4955264;28;20117;-75
2021/11/01 21:49:12;;;;;;;9.75;2.90;;;;;;;7.96;85.03;99765.78;4958883;28;20606;-75
2021/11/01 21:51:48;;;;;;;12.10;3.17;;;;;;;7.93;85.19;99761.75;5011528;23;20046;-75
2021/11/01 21:56:57;;;;;;;8.70;2.60;;;;;;;7.95;85.38;99762.41;4978622;28;20057;-75
2021/11/01 22:18:52;;;;;;;4.07;1.65;;;;;;;7.71;86.31;99775.34;4976298;28;20097;-75
2021/11/01 22:21:23;;;;;;;5.75;1.52;;;;;;;7.69;86.27;99772.13;4974436;28;20191;-75
2021/11/01 22:34:26;;;;;;;5.28;1.35;;;;;;;7.67;86.86;99764.53;4978578;28;20106;-75
2021/11/01 22:44:46;;;;;;;8.20;1.80;;;;;;;7.50;87.59;99756.00;4983428;28;20119;-75
2021/11/01 22:55:42;;;;;;;3.60;1.00;;;;;;;7.44;87.39;99768.72;5004546;28;20035;-74
2021/11/01 22:58:16;;;;;;;7.72;1.67;;;;;;;7.40;87.31;99760.47;4977777;28;20033;-74
2021/11/01 23:00:56;;;;;;;7.68;1.75;;;;;;;7.36;87.35;99765.16;4978103;28;20042;-74
2021/11/01 23:32:56;;;;;;;5.38;2.30;;;;;;;6.94;86.30;99749.78;4983232;28;20474;-74
2021/11/01 23:35:22;;;;;;;7.00;2.20;;;;;;;6.92;86.42;99744.00;4982314;28;20042;-74
2021/11/01 23:37:47;;;;;;;16.33;4.20;;;;;;;6.90;86.14;99749.31;4980001;28;20046;-74
2021/11/01 23:40:13;;;;;;;6.85;3.33;;;;;;;6.81;86.06;99748.47;4979403;28;20387;-74
2021/11/01 23:42:38;;;;;;;7.57;3.47;;;;;;;6.76;86.27;99750.72;4977590;28;20275;-74
2021/11/01 23:45:04;;;;;;;8.75;3.53;;;;;;;6.74;86.61;99759.56;4979651;28;20515;-74
2021/11/01 23:47:30;;;;;;;9.82;3.25;;;;;;;6.70;86.63;99758.25;4981595;28;20034;-74
2021/11/01 23:49:56;;;;;;;7.57;3.30;;;;;;;6.66;86.44;99754.38;4977396;28;20656;-74
2021/11/01 23:52:22;;;;;;;6.65;2.70;;;;;;;6.61;86.34;99765.13;5060232;28;20037;-74
2021/11/01 23:54:48;;;;;;;6.18;2.50;;;;;;;6.57;86.40;99767.25;4975293;28;20083;-74
2021/11/01 23:57:16;;;;;;;9.48;3.30;;;;;;;6.54;86.37;99772.69;4986128;28;20554;-74
2021/11/01 23:59:46;;;;;;;9.90;2.50;;;;;;;6.51;86.38;99767.03;4976900;28;20031;-74
